sensor_id;sensor_type;location;lat;lon;timestamp;P1;durP1;ratioP1;P2;durP2;ratioP2
28760;SDS011;15917;50.014;8.352;2022-08-01T00:02:11;0.85;;;0.80;;
28760;SDS011;15917;50.014;8.352;2022-08-01T00:04:37;4.03;;;0.90;;
28760;SDS011;15917;50.014;8.352;2022-08-01T00:07:03;1.85;;;0.80;;
28760;SDS011;15917;50.014;8.352;2022-08-01T00:09:28;2.25;;;0.93;;
28760;SDS011;15917;50.014;8.352;2022-08-01T00:11:54;1.00;;;0.73;;
28760;SDS011;15917;50.014;8.352;2022-08-01T00:14:20;1.15;;;0.77;;
28760;SDS011;15917;50.014;8.352;2022-08-01T00:16:45;1.83;;;1.00;;
28760;SDS011;15917;50.014;8.352;2022-08-01T00:19:11;3.17;;;0.95;;
28760;SDS011;15917;50.014;8.352;2022-08-01T00:21:37;1.13;;;0.80;;
28760;SDS011;15917;50.014;8.352;2022-08-01T00:24:02;5.90;;;0.80;;
28760;SDS011;15917;50.014;8.352;2022-08-01T00:26:28;1.52;;;0.77;;
28760;SDS011;15917;50.014;8.352;2022-08-01T00:28:54;2.00;;;0.77;;
28760;SDS011;15917;50.014;8.352;2022-08-01T00:31:19;1.38;;;0.80;;
28760;SDS011;15917;50.014;8.352;2022-08-01T00:33:45;2.42;;;1.05;;
28760;SDS011;15917;50.014;8.352;2022-08-01T00:36:10;0.60;;;0.60;;
28760;SDS011;15917;50.014;8.352;2022-08-01T00:38:36;1.27;;;0.80;;
28760;SDS011;15917;50.014;8.352;2022-08-01T00:41:02;1.50;;;0.70;;
28760;SDS011;15917;50.014;8.352;2022-08-01T00:43:27;0.90;;;0.77;;
28760;SDS011;15917;50.014;8.352;2022-08-01T00:45:53;1.52;;;0.73;;
28760;SDS011;15917;50.014;8.352;2022-08-01T00:48:19;3.97;;;1.05;;
28760;SDS011;15917;50.014;8.352;2022-08-01T00:50:44;0.88;;;0.60;;
28760;SDS011;15917;50.014;8.352;2022-08-01T00:53:11;1.02;;;0.73;;
28760;SDS011;15917;50.014;8.352;2022-08-01T00:55:37;1.45;;;0.60;;
28760;SDS011;15917;50.014;8.352;2022-08-01T00:58:02;1.70;;;1.00;;
28760;SDS011;15917;50.014;8.352;2022-08-01T01:00:28;2.30;;;0.88;;
28760;SDS011;15917;50.014;8.352;2022-08-01T01:02:54;4.28;;;0.95;;
28760;SDS011;15917;50.014;8.352;2022-08-01T01:05:19;1.75;;;0.90;;
28760;SDS011;15917;50.014;8.352;2022-08-01T01:13:04;3.65;;;1.00;;
28760;SDS011;15917;50.014;8.352;2022-08-01T01:15:51;0.60;;;0.60;;
28760;SDS011;15917;50.014;8.352;2022-08-01T01:18:24;1.25;;;0.82;;
28760;SDS011;15917;50.014;8.352;2022-08-01T01:26:29;0.57;;;0.57;;
28760;SDS011;15917;50.014;8.352;2022-08-01T01:29:13;1.02;;;0.70;;
28760;SDS011;15917;50.014;8.352;2022-08-01T01:31:54;5.13;;;0.90;;
28760;SDS011;15917;50.014;8.352;2022-08-01T01:34:23;3.90;;;1.00;;
28760;SDS011;15917;50.014;8.352;2022-08-01T01:36:52;1.02;;;0.55;;
28760;SDS011;15917;50.014;8.352;2022-08-01T01:39:20;3.95;;;1.02;;
28760;SDS011;15917;50.014;8.352;2022-08-01T01:41:49;0.88;;;0.70;;
28760;SDS011;15917;50.014;8.352;2022-08-01T01:44:17;5.75;;;1.02;;
28760;SDS011;15917;50.014;8.352;2022-08-01T01:46:44;2.28;;;0.63;;
28760;SDS011;15917;50.014;8.352;2022-08-01T01:49:10;2.23;;;0.70;;
28760;SDS011;15917;50.014;8.352;2022-08-01T01:51:37;1.85;;;0.77;;
28760;SDS011;15917;50.014;8.352;2022-08-01T01:54:04;4.13;;;0.60;;
28760;SDS011;15917;50.014;8.352;2022-08-01T01:56:30;0.82;;;0.80;;
28760;SDS011;15917;50.014;8.352;2022-08-01T01:58:58;1.17;;;0.68;;
28760;SDS011;15917;50.014;8.352;2022-08-01T02:01:28;1.83;;;0.70;;
28760;SDS011;15917;50.014;8.352;2022-08-01T02:03:55;1.05;;;0.90;;
28760;SDS011;15917;50.014;8.352;2022-08-01T02:06:21;0.70;;;0.70;;
28760;SDS011;15917;50.014;8.352;2022-08-01T02:08:49;1.42;;;0.60;;
28760;SDS011;15917;50.014;8.352;2022-08-01T02:11:16;2.90;;;0.90;;
28760;SDS011;15917;50.014;8.352;2022-08-01T02:13:51;4.35;;;1.30;;
28760;SDS011;15917;50.014;8.352;2022-08-01T02:16:21;1.98;;;0.75;;
28760;SDS011;15917;50.014;8.352;2022-08-01T02:18:49;1.67;;;0.93;;
28760;SDS011;15917;50.014;8.352;2022-08-01T02:21:16;1.30;;;0.70;;
28760;SDS011;15917;50.014;8.352;2022-08-01T02:23:48;1.95;;;0.80;;
28760;SDS011;15917;50.014;8.352;2022-08-01T02:26:15;0.75;;;0.65;;
28760;SDS011;15917;50.014;8.352;2022-08-01T02:28:45;0.65;;;0.65;;
28760;SDS011;15917;50.014;8.352;2022-08-01T02:31:17;0.60;;;0.60;;
28760;SDS011;15917;50.014;8.352;2022-08-01T02:33:48;2.83;;;1.00;;
28760;SDS011;15917;50.014;8.352;2022-08-01T02:36:23;2.30;;;0.90;;
28760;SDS011;15917;50.014;8.352;2022-08-01T02:38:52;3.63;;;1.05;;
28760;SDS011;15917;50.014;8.352;2022-08-01T02:41:20;1.42;;;0.80;;
28760;SDS011;15917;50.014;8.352;2022-08-01T02:43:48;2.13;;;0.85;;
28760;SDS011;15917;50.014;8.352;2022-08-01T02:46:17;3.97;;;1.33;;
28760;SDS011;15917;50.014;8.352;2022-08-01T02:48:55;2.25;;;0.90;;
28760;SDS011;15917;50.014;8.352;2022-08-01T02:51:24;2.25;;;0.98;;
28760;SDS011;15917;50.014;8.352;2022-08-01T02:53:51;5.28;;;0.90;;
28760;SDS011;15917;50.014;8.352;2022-08-01T02:56:18;0.95;;;0.70;;
28760;SDS011;15917;50.014;8.352;2022-08-01T02:58:46;6.85;;;1.20;;
28760;SDS011;15917;50.014;8.352;2022-08-01T03:01:13;4.65;;;1.88;;
28760;SDS011;15917;50.014;8.352;2022-08-01T03:03:41;0.75;;;0.75;;
28760;SDS011;15917;50.014;8.352;2022-08-01T03:06:07;1.58;;;1.00;;
28760;SDS011;15917;50.014;8.352;2022-08-01T03:08:33;0.70;;;0.70;;
28760;SDS011;15917;50.014;8.352;2022-08-01T03:11:01;2.63;;;0.77;;
28760;SDS011;15917;50.014;8.352;2022-08-01T03:13:28;3.47;;;0.93;;
28760;SDS011;15917;50.014;8.352;2022-08-01T03:15:55;2.40;;;1.08;;
28760;SDS011;15917;50.014;8.352;2022-08-01T03:18:23;2.92;;;1.05;;
28760;SDS011;15917;50.014;8.352;2022-08-01T03:20:50;1.60;;;0.90;;
28760;SDS011;15917;50.014;8.352;2022-08-01T03:23:17;1.13;;;0.98;;
28760;SDS011;15917;50.014;8.352;2022-08-01T03:25:45;8.43;;;1.08;;
28760;SDS011;15917;50.014;8.352;2022-08-01T03:28:13;2.53;;;0.95;;
28760;SDS011;15917;50.014;8.352;2022-08-01T03:30:42;2.75;;;1.00;;
28760;SDS011;15917;50.014;8.352;2022-08-01T03:33:08;4.55;;;1.30;;
28760;SDS011;15917;50.014;8.352;2022-08-01T03:35:42;1.20;;;0.93;;
28760;SDS011;15917;50.014;8.352;2022-08-01T03:38:18;4.30;;;1.30;;
28760;SDS011;15917;50.014;8.352;2022-08-01T03:40:59;1.50;;;0.90;;
28760;SDS011;15917;50.014;8.352;2022-08-01T03:43:36;4.50;;;1.08;;
28760;SDS011;15917;50.014;8.352;2022-08-01T03:46:07;7.53;;;0.93;;
28760;SDS011;15917;50.014;8.352;2022-08-01T03:48:37;2.00;;;0.90;;
28760;SDS011;15917;50.014;8.352;2022-08-01T03:51:08;1.25;;;0.80;;
28760;SDS011;15917;50.014;8.352;2022-08-01T03:53:35;1.20;;;0.90;;
28760;SDS011;15917;50.014;8.352;2022-08-01T03:56:03;2.92;;;0.90;;
28760;SDS011;15917;50.014;8.352;2022-08-01T03:58:33;1.42;;;0.68;;
28760;SDS011;15917;50.014;8.352;2022-08-01T04:01:00;1.05;;;0.90;;
28760;SDS011;15917;50.014;8.352;2022-08-01T04:03:26;2.72;;;1.30;;
28760;SDS011;15917;50.014;8.352;2022-08-01T04:05:52;2.67;;;0.90;;
28760;SDS011;15917;50.014;8.352;2022-08-01T04:08:18;4.65;;;0.98;;
28760;SDS011;15917;50.014;8.352;2022-08-01T04:10:44;0.93;;;0.80;;
28760;SDS011;15917;50.014;8.352;2022-08-01T04:13:09;1.27;;;1.00;;
28760;SDS011;15917;50.014;8.352;2022-08-01T04:15:35;4.60;;;0.93;;
28760;SDS011;15917;50.014;8.352;2022-08-01T04:18:01;2.13;;;1.00;;
28760;SDS011;15917;50.014;8.352;2022-08-01T04:20:26;2.05;;;0.90;;
28760;SDS011;15917;50.014;8.352;2022-08-01T04:22:52;2.80;;;0.82;;
28760;SDS011;15917;50.014;8.352;2022-08-01T04:25:32;1.88;;;0.68;;
28760;SDS011;15917;50.014;8.352;2022-08-01T04:28:00;3.30;;;0.93;;
28760;SDS011;15917;50.014;8.352;2022-08-01T04:30:29;2.17;;;1.10;;
28760;SDS011;15917;50.014;8.352;2022-08-01T04:32:57;2.33;;;1.00;;
28760;SDS011;15917;50.014;8.352;2022-08-01T04:35:25;3.30;;;0.70;;
28760;SDS011;15917;50.014;8.352;2022-08-01T04:37:51;1.27;;;0.77;;
28760;SDS011;15917;50.014;8.352;2022-08-01T04:40:18;3.42;;;0.80;;
28760;SDS011;15917;50.014;8.352;2022-08-01T04:42:47;1.33;;;0.70;;
28760;SDS011;15917;50.014;8.352;2022-08-01T04:45:14;2.67;;;0.75;;
28760;SDS011;15917;50.014;8.352;2022-08-01T04:47:40;2.22;;;0.98;;
28760;SDS011;15917;50.014;8.352;2022-08-01T04:50:08;6.13;;;0.70;;
28760;SDS011;15917;50.014;8.352;2022-08-01T04:52:35;3.27;;;1.30;;
28760;SDS011;15917;50.014;8.352;2022-08-01T04:55:02;2.85;;;1.30;;
28760;SDS011;15917;50.014;8.352;2022-08-01T04:57:29;4.17;;;1.40;;
28760;SDS011;15917;50.014;8.352;2022-08-01T04:59:55;2.25;;;1.33;;
28760;SDS011;15917;50.014;8.352;2022-08-01T05:02:24;1.75;;;0.82;;
28760;SDS011;15917;50.014;8.352;2022-08-01T05:04:53;2.92;;;1.15;;
28760;SDS011;15917;50.014;8.352;2022-08-01T05:07:20;2.55;;;1.23;;
28760;SDS011;15917;50.014;8.352;2022-08-01T05:09:46;3.92;;;1.05;;
28760;SDS011;15917;50.014;8.352;2022-08-01T05:12:12;3.08;;;1.10;;
28760;SDS011;15917;50.014;8.352;2022-08-01T05:14:38;5.75;;;0.95;;
28760;SDS011;15917;50.014;8.352;2022-08-01T05:17:05;4.75;;;0.80;;
28760;SDS011;15917;50.014;8.352;2022-08-01T05:19:38;2.15;;;1.10;;
28760;SDS011;15917;50.014;8.352;2022-08-01T05:22:05;3.55;;;1.08;;
28760;SDS011;15917;50.014;8.352;2022-08-01T05:24:33;3.42;;;1.13;;
28760;SDS011;15917;50.014;8.352;2022-08-01T05:26:59;4.10;;;1.10;;
28760;SDS011;15917;50.014;8.352;2022-08-01T05:29:25;8.52;;;1.10;;
28760;SDS011;15917;50.014;8.352;2022-08-01T05:31:51;4.80;;;1.20;;
28760;SDS011;15917;50.014;8.352;2022-08-01T05:34:18;1.42;;;0.90;;
28760;SDS011;15917;50.014;8.352;2022-08-01T05:36:44;2.20;;;1.10;;
28760;SDS011;15917;50.014;8.352;2022-08-01T05:39:10;5.80;;;1.35;;
28760;SDS011;15917;50.014;8.352;2022-08-01T05:41:36;3.70;;;0.93;;
28760;SDS011;15917;50.014;8.352;2022-08-01T05:44:03;1.98;;;1.10;;
28760;SDS011;15917;50.014;8.352;2022-08-01T05:46:29;5.27;;;1.10;;
28760;SDS011;15917;50.014;8.352;2022-08-01T05:48:58;4.25;;;0.98;;
28760;SDS011;15917;50.014;8.352;2022-08-01T05:51:24;1.80;;;0.80;;
28760;SDS011;15917;50.014;8.352;2022-08-01T05:53:50;1.33;;;0.93;;
28760;SDS011;15917;50.014;8.352;2022-08-01T05:56:16;3.95;;;1.30;;
28760;SDS011;15917;50.014;8.352;2022-08-01T05:58:42;5.15;;;1.38;;
28760;SDS011;15917;50.014;8.352;2022-08-01T06:01:08;0.82;;;0.75;;
28760;SDS011;15917;50.014;8.352;2022-08-01T06:03:34;0.95;;;0.68;;
28760;SDS011;15917;50.014;8.352;2022-08-01T06:06:00;4.78;;;0.95;;
28760;SDS011;15917;50.014;8.352;2022-08-01T06:08:26;4.72;;;1.10;;
28760;SDS011;15917;50.014;8.352;2022-08-01T06:10:52;2.38;;;0.80;;
28760;SDS011;15917;50.014;8.352;2022-08-01T06:13:18;2.65;;;1.00;;
28760;SDS011;15917;50.014;8.352;2022-08-01T06:15:44;9.23;;;1.00;;
28760;SDS011;15917;50.014;8.352;2022-08-01T06:18:10;1.08;;;0.80;;
28760;SDS011;15917;50.014;8.352;2022-08-01T06:20:36;3.55;;;1.10;;
28760;SDS011;15917;50.014;8.352;2022-08-01T06:23:02;5.75;;;1.10;;
28760;SDS011;15917;50.014;8.352;2022-08-01T06:25:27;2.17;;;1.15;;
28760;SDS011;15917;50.014;8.352;2022-08-01T06:27:53;2.42;;;1.13;;
28760;SDS011;15917;50.014;8.352;2022-08-01T06:30:19;2.50;;;1.10;;
28760;SDS011;15917;50.014;8.352;2022-08-01T06:32:45;3.72;;;1.23;;
28760;SDS011;15917;50.014;8.352;2022-08-01T06:35:12;1.52;;;1.00;;
28760;SDS011;15917;50.014;8.352;2022-08-01T06:37:37;5.03;;;1.10;;
28760;SDS011;15917;50.014;8.352;2022-08-01T06:40:03;1.48;;;0.90;;
28760;SDS011;15917;50.014;8.352;2022-08-01T06:42:30;2.15;;;0.93;;
28760;SDS011;15917;50.014;8.352;2022-08-01T06:45:00;2.17;;;1.10;;
28760;SDS011;15917;50.014;8.352;2022-08-01T06:47:33;1.25;;;0.85;;
28760;SDS011;15917;50.014;8.352;2022-08-01T06:49:59;1.20;;;1.10;;
28760;SDS011;15917;50.014;8.352;2022-08-01T06:52:24;3.28;;;1.25;;
28760;SDS011;15917;50.014;8.352;2022-08-01T06:54:50;9.45;;;1.58;;
28760;SDS011;15917;50.014;8.352;2022-08-01T06:57:16;2.97;;;1.20;;
28760;SDS011;15917;50.014;8.352;2022-08-01T06:59:42;7.45;;;1.30;;
28760;SDS011;15917;50.014;8.352;2022-08-01T07:02:08;2.30;;;1.23;;
28760;SDS011;15917;50.014;8.352;2022-08-01T07:04:34;2.72;;;1.25;;
28760;SDS011;15917;50.014;8.352;2022-08-01T07:06:59;1.92;;;1.15;;
28760;SDS011;15917;50.014;8.352;2022-08-01T07:09:25;3.30;;;1.02;;
28760;SDS011;15917;50.014;8.352;2022-08-01T07:11:52;3.47;;;1.48;;
28760;SDS011;15917;50.014;8.352;2022-08-01T07:14:19;5.13;;;1.38;;
28760;SDS011;15917;50.014;8.352;2022-08-01T07:16:45;1.95;;;1.20;;
28760;SDS011;15917;50.014;8.352;2022-08-01T07:19:11;3.00;;;1.58;;
28760;SDS011;15917;50.014;8.352;2022-08-01T07:21:37;1.98;;;1.35;;
28760;SDS011;15917;50.014;8.352;2022-08-01T07:24:03;2.20;;;1.40;;
28760;SDS011;15917;50.014;8.352;2022-08-01T07:26:30;1.25;;;1.17;;
28760;SDS011;15917;50.014;8.352;2022-08-01T07:28:55;1.63;;;1.00;;
28760;SDS011;15917;50.014;8.352;2022-08-01T07:31:21;2.75;;;1.40;;
28760;SDS011;15917;50.014;8.352;2022-08-01T07:33:48;5.28;;;1.73;;
28760;SDS011;15917;50.014;8.352;2022-08-01T07:36:13;1.90;;;1.25;;
28760;SDS011;15917;50.014;8.352;2022-08-01T07:38:39;4.40;;;1.23;;
28760;SDS011;15917;50.014;8.352;2022-08-01T07:41:05;3.05;;;1.40;;
28760;SDS011;15917;50.014;8.352;2022-08-01T07:43:31;2.50;;;1.63;;
28760;SDS011;15917;50.014;8.352;2022-08-01T07:45:56;6.70;;;1.40;;
28760;SDS011;15917;50.014;8.352;2022-08-01T07:48:22;1.42;;;1.20;;
28760;SDS011;15917;50.014;8.352;2022-08-01T07:50:52;2.95;;;1.40;;
28760;SDS011;15917;50.014;8.352;2022-08-01T07:53:17;3.63;;;1.35;;
28760;SDS011;15917;50.014;8.352;2022-08-01T07:55:43;2.80;;;1.90;;
28760;SDS011;15917;50.014;8.352;2022-08-01T07:58:09;2.40;;;1.90;;
28760;SDS011;15917;50.014;8.352;2022-08-01T08:00:34;6.28;;;1.80;;
28760;SDS011;15917;50.014;8.352;2022-08-01T08:03:00;5.05;;;1.83;;
28760;SDS011;15917;50.014;8.352;2022-08-01T08:05:26;3.75;;;1.55;;
28760;SDS011;15917;50.014;8.352;2022-08-01T08:07:52;4.80;;;1.88;;
28760;SDS011;15917;50.014;8.352;2022-08-01T08:10:18;2.17;;;1.67;;
28760;SDS011;15917;50.014;8.352;2022-08-01T08:12:44;4.32;;;1.88;;
28760;SDS011;15917;50.014;8.352;2022-08-01T08:15:11;2.60;;;1.55;;
28760;SDS011;15917;50.014;8.352;2022-08-01T08:17:38;2.50;;;1.52;;
28760;SDS011;15917;50.014;8.352;2022-08-01T08:20:05;1.80;;;1.45;;
28760;SDS011;15917;50.014;8.352;2022-08-01T08:22:33;4.28;;;1.90;;
28760;SDS011;15917;50.014;8.352;2022-08-01T08:24:59;2.60;;;2.13;;
28760;SDS011;15917;50.014;8.352;2022-08-01T08:27:25;4.43;;;1.35;;
28760;SDS011;15917;50.014;8.352;2022-08-01T08:29:50;3.10;;;1.63;;
28760;SDS011;15917;50.014;8.352;2022-08-01T08:32:16;5.18;;;1.50;;
28760;SDS011;15917;50.014;8.352;2022-08-01T08:34:42;2.15;;;1.52;;
28760;SDS011;15917;50.014;8.352;2022-08-01T08:37:08;2.88;;;1.48;;
28760;SDS011;15917;50.014;8.352;2022-08-01T08:39:34;4.38;;;1.50;;
28760;SDS011;15917;50.014;8.352;2022-08-01T08:41:59;3.22;;;1.48;;
28760;SDS011;15917;50.014;8.352;2022-08-01T08:44:27;1.65;;;1.27;;
28760;SDS011;15917;50.014;8.352;2022-08-01T08:46:53;3.58;;;1.00;;
28760;SDS011;15917;50.014;8.352;2022-08-01T08:49:25;2.08;;;1.10;;
28760;SDS011;15917;50.014;8.352;2022-08-01T08:51:53;2.28;;;1.67;;
28760;SDS011;15917;50.014;8.352;2022-08-01T08:54:22;2.30;;;1.55;;
28760;SDS011;15917;50.014;8.352;2022-08-01T08:56:50;3.13;;;1.50;;
28760;SDS011;15917;50.014;8.352;2022-08-01T08:59:17;2.33;;;1.80;;
28760;SDS011;15917;50.014;8.352;2022-08-01T09:01:44;1.58;;;1.10;;
28760;SDS011;15917;50.014;8.352;2022-08-01T09:04:10;6.13;;;1.60;;
28760;SDS011;15917;50.014;8.352;2022-08-01T09:06:37;2.53;;;1.33;;
28760;SDS011;15917;50.014;8.352;2022-08-01T09:09:03;3.20;;;1.27;;
28760;SDS011;15917;50.014;8.352;2022-08-01T09:11:30;2.58;;;1.83;;
28760;SDS011;15917;50.014;8.352;2022-08-01T09:14:16;3.83;;;1.70;;
28760;SDS011;15917;50.014;8.352;2022-08-01T09:16:58;5.32;;;1.92;;
28760;SDS011;15917;50.014;8.352;2022-08-01T09:19:38;6.03;;;2.33;;
28760;SDS011;15917;50.014;8.352;2022-08-01T09:22:11;3.88;;;2.38;;
28760;SDS011;15917;50.014;8.352;2022-08-01T09:24:38;2.97;;;2.17;;
28760;SDS011;15917;50.014;8.352;2022-08-01T09:27:16;4.03;;;2.50;;
28760;SDS011;15917;50.014;8.352;2022-08-01T09:29:46;3.70;;;2.65;;
28760;SDS011;15917;50.014;8.352;2022-08-01T09:32:11;2.75;;;1.80;;
28760;SDS011;15917;50.014;8.352;2022-08-01T09:34:37;3.33;;;2.85;;
28760;SDS011;15917;50.014;8.352;2022-08-01T09:37:03;3.50;;;2.10;;
28760;SDS011;15917;50.014;8.352;2022-08-01T09:41:59;2.88;;;1.92;;
28760;SDS011;15917;50.014;8.352;2022-08-01T09:47:05;2.38;;;2.17;;
28760;SDS011;15917;50.014;8.352;2022-08-01T09:49:32;4.60;;;2.70;;
28760;SDS011;15917;50.014;8.352;2022-08-01T09:54:35;4.50;;;2.75;;
28760;SDS011;15917;50.014;8.352;2022-08-01T09:57:34;3.90;;;2.30;;
28760;SDS011;15917;50.014;8.352;2022-08-01T09:59:55;10.40;;;2.15;;
28760;SDS011;15917;50.014;8.352;2022-08-01T10:02:32;4.80;;;2.13;;
28760;SDS011;15917;50.014;8.352;2022-08-01T10:04:59;2.80;;;2.17;;
28760;SDS011;15917;50.014;8.352;2022-08-01T10:07:26;2.38;;;1.60;;
28760;SDS011;15917;50.014;8.352;2022-08-01T10:09:52;2.78;;;2.03;;
28760;SDS011;15917;50.014;8.352;2022-08-01T10:12:18;2.63;;;2.03;;
28760;SDS011;15917;50.014;8.352;2022-08-01T10:14:46;2.53;;;1.85;;
28760;SDS011;15917;50.014;8.352;2022-08-01T10:17:20;2.00;;;1.67;;
28760;SDS011;15917;50.014;8.352;2022-08-01T10:19:49;1.70;;;1.55;;
28760;SDS011;15917;50.014;8.352;2022-08-01T10:22:19;2.60;;;1.70;;
28760;SDS011;15917;50.014;8.352;2022-08-01T10:24:50;2.80;;;1.50;;
28760;SDS011;15917;50.014;8.352;2022-08-01T10:27:19;2.30;;;1.00;;
28760;SDS011;15917;50.014;8.352;2022-08-01T10:32:21;1.75;;;1.55;;
28760;SDS011;15917;50.014;8.352;2022-08-01T10:34:48;2.00;;;1.17;;
28760;SDS011;15917;50.014;8.352;2022-08-01T10:37:14;2.08;;;1.40;;
28760;SDS011;15917;50.014;8.352;2022-08-01T10:39:42;1.90;;;1.48;;
28760;SDS011;15917;50.014;8.352;2022-08-01T10:42:09;2.00;;;1.17;;
28760;SDS011;15917;50.014;8.352;2022-08-01T10:44:36;1.50;;;1.35;;
28760;SDS011;15917;50.014;8.352;2022-08-01T10:47:08;2.90;;;1.95;;
28760;SDS011;15917;50.014;8.352;2022-08-01T10:49:38;2.53;;;1.77;;
28760;SDS011;15917;50.014;8.352;2022-08-01T10:52:21;2.38;;;1.77;;
28760;SDS011;15917;50.014;8.352;2022-08-01T10:54:47;3.95;;;1.77;;
28760;SDS011;15917;50.014;8.352;2022-08-01T10:57:13;2.67;;;1.75;;
28760;SDS011;15917;50.014;8.352;2022-08-01T10:59:48;1.45;;;1.35;;
28760;SDS011;15917;50.014;8.352;2022-08-01T11:02:28;2.80;;;1.35;;
28760;SDS011;15917;50.014;8.352;2022-08-01T11:05:07;6.53;;;1.70;;
28760;SDS011;15917;50.014;8.352;2022-08-01T11:07:45;11.68;;;1.75;;
28760;SDS011;15917;50.014;8.352;2022-08-01T11:12:58;6.53;;;1.23;;
28760;SDS011;15917;50.014;8.352;2022-08-01T11:15:26;1.63;;;1.33;;
28760;SDS011;15917;50.014;8.352;2022-08-01T11:17:55;2.60;;;1.35;;
28760;SDS011;15917;50.014;8.352;2022-08-01T11:20:23;4.28;;;1.52;;
28760;SDS011;15917;50.014;8.352;2022-08-01T11:25:26;1.92;;;1.52;;
28760;SDS011;15917;50.014;8.352;2022-08-01T11:30:42;3.00;;;1.52;;
28760;SDS011;15917;50.014;8.352;2022-08-01T11:33:10;2.03;;;1.20;;
28760;SDS011;15917;50.014;8.352;2022-08-01T11:35:36;1.77;;;1.47;;
28760;SDS011;15917;50.014;8.352;2022-08-01T11:38:23;1.27;;;1.17;;
28760;SDS011;15917;50.014;8.352;2022-08-01T11:44:01;6.70;;;1.57;;
28760;SDS011;15917;50.014;8.352;2022-08-01T11:51:58;2.33;;;1.20;;
28760;SDS011;15917;50.014;8.352;2022-08-01T11:54:38;2.45;;;1.20;;
28760;SDS011;15917;50.014;8.352;2022-08-01T11:57:14;1.90;;;1.42;;
28760;SDS011;15917;50.014;8.352;2022-08-01T11:59:48;1.95;;;1.30;;
28760;SDS011;15917;50.014;8.352;2022-08-01T12:02:19;3.22;;;1.25;;
28760;SDS011;15917;50.014;8.352;2022-08-01T12:04:55;2.50;;;1.70;;
28760;SDS011;15917;50.014;8.352;2022-08-01T12:07:22;3.17;;;1.63;;
28760;SDS011;15917;50.014;8.352;2022-08-01T12:10:25;2.25;;;1.42;;
28760;SDS011;15917;50.014;8.352;2022-08-01T12:12:44;6.35;;;1.05;;
28760;SDS011;15917;50.014;8.352;2022-08-01T12:15:11;2.80;;;1.02;;
28760;SDS011;15917;50.014;8.352;2022-08-01T12:17:39;3.75;;;1.40;;
28760;SDS011;15917;50.014;8.352;2022-08-01T12:20:07;1.58;;;1.17;;
28760;SDS011;15917;50.014;8.352;2022-08-01T12:22:34;4.40;;;1.10;;
28760;SDS011;15917;50.014;8.352;2022-08-01T12:25:07;2.97;;;1.80;;
28760;SDS011;15917;50.014;8.352;2022-08-01T12:27:39;2.38;;;1.65;;
28760;SDS011;15917;50.014;8.352;2022-08-01T12:30:07;3.90;;;1.70;;
28760;SDS011;15917;50.014;8.352;2022-08-01T12:32:41;1.58;;;1.30;;
28760;SDS011;15917;50.014;8.352;2022-08-01T12:35:10;2.00;;;1.40;;
28760;SDS011;15917;50.014;8.352;2022-08-01T12:37:37;5.80;;;1.55;;
28760;SDS011;15917;50.014;8.352;2022-08-01T12:42:37;2.97;;;1.48;;
28760;SDS011;15917;50.014;8.352;2022-08-01T12:45:05;2.63;;;1.00;;
28760;SDS011;15917;50.014;8.352;2022-08-01T12:47:33;2.25;;;1.70;;
28760;SDS011;15917;50.014;8.352;2022-08-01T12:50:02;1.60;;;1.20;;
28760;SDS011;15917;50.014;8.352;2022-08-01T12:52:29;1.93;;;1.43;;
28760;SDS011;15917;50.014;8.352;2022-08-01T12:55:13;1.77;;;1.50;;
28760;SDS011;15917;50.014;8.352;2022-08-01T12:57:41;2.80;;;1.25;;
28760;SDS011;15917;50.014;8.352;2022-08-01T13:02:47;2.17;;;1.37;;
28760;SDS011;15917;50.014;8.352;2022-08-01T13:05:14;8.68;;;1.40;;
28760;SDS011;15917;50.014;8.352;2022-08-01T13:07:43;2.70;;;1.40;;
28760;SDS011;15917;50.014;8.352;2022-08-01T13:10:10;1.45;;;1.30;;
28760;SDS011;15917;50.014;8.352;2022-08-01T13:12:37;1.43;;;1.13;;
28760;SDS011;15917;50.014;8.352;2022-08-01T13:15:22;2.77;;;1.63;;
28760;SDS011;15917;50.014;8.352;2022-08-01T13:17:50;1.42;;;1.30;;
28760;SDS011;15917;50.014;8.352;2022-08-01T13:20:31;2.25;;;1.05;;
28760;SDS011;15917;50.014;8.352;2022-08-01T13:23:18;2.55;;;1.35;;
28760;SDS011;15917;50.014;8.352;2022-08-01T13:25:51;1.60;;;1.42;;
28760;SDS011;15917;50.014;8.352;2022-08-01T13:28:20;1.33;;;1.20;;
28760;SDS011;15917;50.014;8.352;2022-08-01T13:30:51;3.83;;;1.27;;
28760;SDS011;15917;50.014;8.352;2022-08-01T13:33:43;2.80;;;1.48;;
28760;SDS011;15917;50.014;8.352;2022-08-01T13:36:11;1.60;;;1.25;;
28760;SDS011;15917;50.014;8.352;2022-08-01T13:38:38;3.55;;;1.83;;
28760;SDS011;15917;50.014;8.352;2022-08-01T13:41:23;4.00;;;1.67;;
28760;SDS011;15917;50.014;8.352;2022-08-01T13:43:49;2.65;;;1.50;;
28760;SDS011;15917;50.014;8.352;2022-08-01T13:46:15;1.40;;;1.30;;
28760;SDS011;15917;50.014;8.352;2022-08-01T13:48:42;2.58;;;1.60;;
28760;SDS011;15917;50.014;8.352;2022-08-01T13:51:08;1.70;;;1.33;;
28760;SDS011;15917;50.014;8.352;2022-08-01T13:53:33;2.83;;;1.52;;
28760;SDS011;15917;50.014;8.352;2022-08-01T13:56:00;3.67;;;2.42;;
28760;SDS011;15917;50.014;8.352;2022-08-01T13:58:26;3.78;;;1.52;;
28760;SDS011;15917;50.014;8.352;2022-08-01T14:00:53;7.88;;;1.40;;
28760;SDS011;15917;50.014;8.352;2022-08-01T14:03:19;2.00;;;1.40;;
28760;SDS011;15917;50.014;8.352;2022-08-01T14:05:45;2.42;;;1.33;;
28760;SDS011;15917;50.014;8.352;2022-08-01T14:08:10;2.45;;;1.42;;
28760;SDS011;15917;50.014;8.352;2022-08-01T14:10:36;4.03;;;1.73;;
28760;SDS011;15917;50.014;8.352;2022-08-01T14:13:02;2.00;;;1.70;;
28760;SDS011;15917;50.014;8.352;2022-08-01T14:15:28;2.47;;;1.30;;
28760;SDS011;15917;50.014;8.352;2022-08-01T14:17:54;1.95;;;1.48;;
28760;SDS011;15917;50.014;8.352;2022-08-01T14:20:19;4.97;;;1.33;;
28760;SDS011;15917;50.014;8.352;2022-08-01T14:22:45;4.38;;;1.38;;
28760;SDS011;15917;50.014;8.352;2022-08-01T14:25:11;4.43;;;1.40;;
28760;SDS011;15917;50.014;8.352;2022-08-01T14:27:37;4.57;;;1.50;;
28760;SDS011;15917;50.014;8.352;2022-08-01T14:30:05;1.60;;;1.20;;
28760;SDS011;15917;50.014;8.352;2022-08-01T14:32:31;2.22;;;1.90;;
28760;SDS011;15917;50.014;8.352;2022-08-01T14:34:58;2.55;;;1.40;;
28760;SDS011;15917;50.014;8.352;2022-08-01T14:37:24;2.30;;;1.48;;
28760;SDS011;15917;50.014;8.352;2022-08-01T14:39:50;2.60;;;2.08;;
28760;SDS011;15917;50.014;8.352;2022-08-01T14:42:16;3.60;;;1.58;;
28760;SDS011;15917;50.014;8.352;2022-08-01T14:44:41;3.65;;;1.65;;
28760;SDS011;15917;50.014;8.352;2022-08-01T14:47:07;3.22;;;1.50;;
28760;SDS011;15917;50.014;8.352;2022-08-01T14:49:33;2.78;;;1.70;;
28760;SDS011;15917;50.014;8.352;2022-08-01T14:51:58;3.25;;;1.92;;
28760;SDS011;15917;50.014;8.352;2022-08-01T14:54:24;2.35;;;1.98;;
28760;SDS011;15917;50.014;8.352;2022-08-01T14:56:50;2.65;;;1.80;;
28760;SDS011;15917;50.014;8.352;2022-08-01T14:59:17;4.57;;;2.13;;
28760;SDS011;15917;50.014;8.352;2022-08-01T15:01:44;5.25;;;1.52;;
28760;SDS011;15917;50.014;8.352;2022-08-01T15:04:09;6.88;;;2.35;;
28760;SDS011;15917;50.014;8.352;2022-08-01T15:06:35;2.92;;;1.90;;
28760;SDS011;15917;50.014;8.352;2022-08-01T15:09:01;2.47;;;2.13;;
28760;SDS011;15917;50.014;8.352;2022-08-01T15:11:27;5.10;;;2.22;;
28760;SDS011;15917;50.014;8.352;2022-08-01T15:13:52;3.25;;;2.15;;
28760;SDS011;15917;50.014;8.352;2022-08-01T15:16:36;3.45;;;2.03;;
28760;SDS011;15917;50.014;8.352;2022-08-01T15:19:02;3.55;;;1.90;;
28760;SDS011;15917;50.014;8.352;2022-08-01T15:21:28;3.60;;;2.28;;
28760;SDS011;15917;50.014;8.352;2022-08-01T15:23:54;3.10;;;1.90;;
28760;SDS011;15917;50.014;8.352;2022-08-01T15:26:20;7.47;;;2.28;;
28760;SDS011;15917;50.014;8.352;2022-08-01T15:28:45;3.55;;;1.95;;
28760;SDS011;15917;50.014;8.352;2022-08-01T15:31:11;7.80;;;2.50;;
28760;SDS011;15917;50.014;8.352;2022-08-01T15:33:37;3.58;;;2.25;;
28760;SDS011;15917;50.014;8.352;2022-08-01T15:36:03;2.83;;;2.20;;
28760;SDS011;15917;50.014;8.352;2022-08-01T15:38:29;3.38;;;2.30;;